createdAt,value
2023-03-05T00:00:45.413Z,9.667933
2023-03-05T00:01:45.455Z,9.667886
2023-03-05T00:02:45.455Z,9.667909
2023-03-05T00:03:45.446Z,9.667980
2023-03-05T00:04:46.458Z,9.667987
2023-03-05T00:05:45.357Z,9.667960
2023-03-05T00:06:45.352Z,9.667974
2023-03-05T00:07:45.347Z,9.667985
2023-03-05T00:08:45.359Z,9.668031
2023-03-05T00:09:45.382Z,9.667938
2023-03-05T00:10:45.339Z,9.668017
2023-03-05T00:11:45.345Z,9.668017
2023-03-05T00:12:45.308Z,9.667968
2023-03-05T00:13:45.321Z,9.667960
2023-03-05T00:14:45.326Z,9.667946
2023-03-05T00:15:45.320Z,9.667957
2023-03-05T00:16:45.337Z,9.667967
2023-03-05T00:17:45.312Z,9.668007
2023-03-05T00:18:45.274Z,9.667940
2023-03-05T00:19:45.283Z,9.667986
2023-03-05T00:20:45.258Z,9.667969
2023-03-05T00:21:47.039Z,9.667974
2023-03-05T00:22:45.263Z,9.668007
2023-03-05T00:23:45.221Z,9.667994
2023-03-05T00:24:45.222Z,9.667987
2023-03-05T00:25:45.217Z,9.667919
2023-03-05T00:26:45.202Z,9.667957
2023-03-05T00:27:45.232Z,9.667977
2023-03-05T00:28:45.193Z,9.668080
2023-03-05T00:29:45.193Z,9.668072
2023-03-05T00:30:45.160Z,9.668015
2023-03-05T00:31:45.174Z,9.668015
2023-03-05T00:32:45.720Z,9.668060
2023-03-05T00:33:45.195Z,9.667987
2023-03-05T00:34:45.129Z,9.668087
2023-03-05T00:35:45.190Z,9.668031
2023-03-05T00:36:45.164Z,9.667996
2023-03-05T00:37:45.172Z,9.667988
2023-03-05T00:38:45.115Z,9.668051
2023-03-05T00:39:45.117Z,9.667994
2023-03-05T00:40:45.155Z,9.668003
2023-03-05T00:41:45.081Z,9.668009
2023-03-05T00:42:45.080Z,9.667966
2023-03-05T00:43:45.068Z,9.667973
2023-03-05T00:44:45.124Z,9.667974
2023-03-05T00:45:45.068Z,9.667994
2023-03-05T00:46:45.144Z,9.667997
2023-03-05T00:47:45.069Z,9.667986
2023-03-05T00:48:45.023Z,9.667963
2023-03-05T00:49:45.705Z,9.667988
2023-03-05T00:50:45.047Z,9.667983
2023-03-05T00:51:45.055Z,9.667981
2023-03-05T00:52:45.023Z,9.667961
2023-03-05T00:53:45.006Z,9.667992
2023-03-05T00:54:45.030Z,9.668021
2023-03-05T00:55:46.013Z,9.667978
2023-03-05T00:56:44.957Z,9.667974
2023-03-05T00:57:45.005Z,9.667997
2023-03-05T00:58:44.975Z,9.667947
2023-03-05T00:59:45.018Z,9.667940
2023-03-05T01:00:44.956Z,9.667948
2023-03-05T01:01:44.952Z,9.667947
2023-03-05T01:02:44.908Z,9.667983
2023-03-05T01:03:44.914Z,9.668045
2023-03-05T01:04:44.919Z,9.668071
2023-03-05T01:05:44.919Z,9.668059
2023-03-05T01:06:45.939Z,9.668015
2023-03-05T01:07:44.891Z,9.667960
2023-03-05T01:08:44.859Z,9.667971
2023-03-05T01:09:44.859Z,9.668011
2023-03-05T01:10:44.868Z,9.668032
2023-03-05T01:11:44.843Z,9.667995
2023-03-05T01:12:44.856Z,9.668049
2023-03-05T01:13:44.831Z,9.668051
2023-03-05T01:14:44.815Z,9.668016
2023-03-05T01:15:44.881Z,9.668020
2023-03-05T01:16:44.888Z,9.668037
2023-03-05T01:17:44.813Z,9.668032
2023-03-05T01:18:44.864Z,9.668043
2023-03-05T01:19:44.851Z,9.668056
2023-03-05T01:20:44.823Z,9.668036
2023-03-05T01:21:44.825Z,9.668085
2023-03-05T01:22:44.835Z,9.668045
2023-03-05T01:23:44.727Z,9.668088
2023-03-05T01:24:44.810Z,9.668030
2023-03-05T01:25:44.719Z,9.668081
2023-03-05T01:26:44.776Z,9.668034
2023-03-05T01:27:44.746Z,9.668036
2023-03-05T01:28:44.716Z,9.667994
2023-03-05T01:29:44.719Z,9.668003
2023-03-05T01:30:44.690Z,9.668007
2023-03-05T01:31:44.752Z,9.668003
2023-03-05T01:32:44.679Z,9.668026
2023-03-05T01:33:44.706Z,9.668015
2023-03-05T01:34:44.674Z,9.668016
2023-03-05T01:35:44.731Z,9.668033
2023-03-05T01:36:44.658Z,9.668033
2023-03-05T01:37:44.637Z,9.668088
2023-03-05T01:38:44.649Z,9.668077
2023-03-05T01:39:44.637Z,9.668060
2023-03-05T01:40:44.613Z,9.668109
2023-03-05T01:41:44.597Z,9.668036
2023-03-05T01:42:44.622Z,9.668029
2023-03-05T01:43:44.614Z,9.667984
2023-03-05T01:44:44.629Z,9.667993
2023-03-05T01:45:44.679Z,9.668041
2023-03-05T01:46:44.567Z,9.668003
2023-03-05T01:47:45.567Z,9.667990
2023-03-05T01:48:44.584Z,9.667973
2023-03-05T01:49:44.591Z,9.668027
2023-03-05T01:50:44.579Z,9.668025
2023-03-05T01:51:44.580Z,9.668007
2023-03-05T01:52:44.554Z,9.668005
2023-03-05T01:53:44.567Z,9.668001
2023-03-05T01:54:44.554Z,9.668015
2023-03-05T01:55:44.490Z,9.667966
2023-03-05T01:56:44.475Z,9.667994
2023-03-05T01:57:44.484Z,9.668011
2023-03-05T01:58:44.508Z,9.668000
2023-03-05T01:59:44.480Z,9.668037
2023-03-05T02:00:44.521Z,9.668038
2023-03-05T02:01:44.469Z,9.667999
2023-03-05T02:02:44.452Z,9.668039
2023-03-05T02:03:44.481Z,9.668025
2023-03-05T02:04:44.453Z,9.668040
2023-03-05T02:05:44.465Z,9.668005
2023-03-05T02:06:44.417Z,9.668037
2023-03-05T02:07:44.402Z,9.668033
2023-03-05T02:08:44.387Z,9.668017
2023-03-05T02:09:44.421Z,9.668048
2023-03-05T02:10:44.393Z,9.668049
2023-03-05T02:11:44.393Z,9.667956
2023-03-05T02:12:44.390Z,9.668062
2023-03-05T02:13:44.378Z,9.668022
2023-03-05T02:14:44.387Z,9.668023
2023-03-05T02:15:44.358Z,9.667982
2023-03-05T02:16:44.390Z,9.667986
2023-03-05T02:17:44.332Z,9.668019
2023-03-05T02:18:44.364Z,9.668061
2023-03-05T02:19:44.394Z,9.668052
2023-03-05T02:20:44.327Z,9.668049
2023-03-05T02:21:44.305Z,9.668036
2023-03-05T02:22:44.305Z,9.667995
2023-03-05T02:23:45.130Z,9.667982
2023-03-05T02:24:45.181Z,9.668032
2023-03-05T02:25:44.291Z,9.668003
2023-03-05T02:26:44.297Z,9.668003
2023-03-05T02:27:44.420Z,9.667988
2023-03-05T02:28:44.271Z,9.668049
2023-03-05T02:29:44.310Z,9.668012
2023-03-05T02:30:44.247Z,9.667991
2023-03-05T02:31:44.342Z,9.668010
2023-03-05T02:32:44.283Z,9.668038
2023-03-05T02:33:44.216Z,9.668020
2023-03-05T02:34:44.250Z,9.667999
2023-03-05T02:35:44.230Z,9.668017
2023-03-05T02:36:44.193Z,9.668041
2023-03-05T02:37:44.209Z,9.667975
2023-03-05T02:38:44.185Z,9.667969
2023-03-05T02:39:44.264Z,9.667971
2023-03-05T02:40:44.160Z,9.667959
2023-03-05T02:41:44.176Z,9.667960
2023-03-05T02:42:44.191Z,9.667959
2023-03-05T02:43:44.131Z,9.667969
2023-03-05T02:44:45.138Z,9.668001
2023-03-05T02:45:44.190Z,9.668006
2023-03-05T02:46:44.111Z,9.667971
2023-03-05T02:47:44.142Z,9.667961
2023-03-05T02:48:44.111Z,9.668022
2023-03-05T02:49:44.126Z,9.668064
2023-03-05T02:50:44.104Z,9.668018
2023-03-05T02:51:44.102Z,9.668056
2023-03-05T02:52:44.163Z,9.668028
2023-03-05T02:53:44.095Z,9.668008
2023-03-05T02:54:44.050Z,9.668064
2023-03-05T02:55:44.049Z,9.668031
2023-03-05T02:56:44.035Z,9.668041
2023-03-05T02:57:44.049Z,9.668045
2023-03-05T02:58:44.052Z,9.668091
2023-03-05T02:59:44.066Z,9.668025
2023-03-05T03:00:44.020Z,9.668041
2023-03-05T03:01:43.991Z,9.668026
2023-03-05T03:02:44.024Z,9.668082
2023-03-05T03:03:44.019Z,9.668058
2023-03-05T03:04:43.979Z,9.668019
2023-03-05T03:05:43.978Z,9.668044
2023-03-05T03:06:43.993Z,9.668057
2023-03-05T03:07:43.968Z,9.668013
2023-03-05T03:08:43.981Z,9.668017
2023-03-05T03:09:43.953Z,9.668052
2023-03-05T03:10:43.957Z,9.668022
2023-03-05T03:11:43.950Z,9.668009
2023-03-05T03:12:43.954Z,9.667972
2023-03-05T03:13:43.910Z,9.668004
2023-03-05T03:14:43.895Z,9.667994
2023-03-05T03:15:43.930Z,9.668028
2023-03-05T03:16:43.944Z,9.667978
2023-03-05T03:17:43.902Z,9.667961
2023-03-05T03:18:43.880Z,9.667968
2023-03-05T03:19:43.898Z,9.668013
2023-03-05T03:20:43.913Z,9.668033
2023-03-05T03:21:43.958Z,9.668012
2023-03-05T03:22:44.460Z,9.667997
2023-03-05T03:23:43.834Z,9.667997
2023-03-05T03:24:43.814Z,9.668036
2023-03-05T03:25:43.831Z,9.668050
2023-03-05T03:26:43.813Z,9.667973
2023-03-05T03:27:43.810Z,9.667970
2023-03-05T03:28:43.793Z,9.667962
2023-03-05T03:29:43.786Z,9.667983
2023-03-05T03:30:43.825Z,9.667992
2023-03-05T03:31:43.840Z,9.667949
2023-03-05T03:32:43.777Z,9.667997
2023-03-05T03:33:43.806Z,9.668073
2023-03-05T03:34:43.753Z,9.668039
2023-03-05T03:35:43.769Z,9.667964
2023-03-05T03:36:43.777Z,9.668023
2023-03-05T03:37:43.811Z,9.668054
2023-03-05T03:38:43.749Z,9.668019
2023-03-05T03:39:43.739Z,9.668024
2023-03-05T03:40:43.702Z,9.667975
2023-03-05T03:41:43.725Z,9.667992
2023-03-05T03:42:43.733Z,9.668022
2023-03-05T03:43:43.681Z,9.668042
2023-03-05T03:44:43.727Z,9.668092
2023-03-05T03:45:43.681Z,9.668007
2023-03-05T03:46:43.683Z,9.667967
2023-03-05T04:10:46.972Z,9.668177
2023-03-05T04:11:47.902Z,9.668138
2023-03-05T04:12:46.913Z,9.668074
2023-03-05T04:13:46.861Z,9.667986
2023-03-05T04:14:46.879Z,9.668079
2023-03-05T04:15:46.895Z,9.668007
2023-03-05T04:16:46.859Z,9.668033
2023-03-05T04:17:46.848Z,9.668056
2023-03-05T04:18:46.805Z,9.668072
2023-03-05T04:19:46.857Z,9.668056
2023-03-05T04:20:46.850Z,9.668030
2023-03-05T04:21:46.815Z,9.668040
2023-03-05T04:22:46.786Z,9.668087
2023-03-05T04:23:46.769Z,9.668086
2023-03-05T04:24:46.782Z,9.668085
2023-03-05T04:25:46.794Z,9.668091
2023-03-05T04:26:46.757Z,9.668084
2023-03-05T04:27:46.748Z,9.668078
2023-03-05T04:29:19.432Z,9.668053
2023-03-05T04:29:47.529Z,9.668000
2023-03-05T04:30:47.578Z,9.668057
2023-03-05T04:31:46.719Z,9.668074
2023-03-05T04:32:46.769Z,9.668129
2023-03-05T04:33:46.724Z,9.668067
2023-03-05T04:34:46.733Z,9.668087
2023-03-05T04:35:46.725Z,9.668051
2023-03-05T04:36:46.784Z,9.668066
2023-03-05T04:37:46.671Z,9.668018
2023-03-05T04:38:46.675Z,9.668043
2023-03-05T04:39:46.643Z,9.668085
2023-03-05T04:40:46.632Z,9.668091
2023-03-05T04:41:46.652Z,9.668092
2023-03-05T04:42:46.653Z,9.668091
2023-03-05T04:43:47.616Z,9.668069
2023-03-05T04:44:46.649Z,9.668072
2023-03-05T04:45:46.597Z,9.668066
2023-03-05T04:46:46.636Z,9.668047
2023-03-05T04:47:46.614Z,9.668024
2023-03-05T04:48:47.488Z,9.668036
2023-03-05T04:49:46.565Z,9.668090
2023-03-05T04:50:46.575Z,9.668155
2023-03-05T04:51:46.593Z,9.668077
2023-03-05T04:52:46.562Z,9.668094
2023-03-05T04:53:46.550Z,9.668146
2023-03-05T04:54:46.560Z,9.668140
2023-03-05T04:55:46.578Z,9.668034
2023-03-05T04:56:46.528Z,9.668038
2023-03-05T04:57:46.523Z,9.668128
2023-03-05T04:58:46.535Z,9.667953
2023-03-05T04:59:46.494Z,9.667931
2023-03-05T05:00:46.494Z,9.667988
2023-03-05T05:01:46.526Z,9.667920
2023-03-05T05:02:46.544Z,9.667918
2023-03-05T05:03:46.522Z,9.667906
2023-03-05T05:04:46.505Z,9.667896
2023-03-05T05:05:46.484Z,9.667858
2023-03-05T05:06:46.523Z,9.667918
2023-03-05T05:07:47.346Z,9.667885
2023-03-05T05:09:18.382Z,9.667944
2023-03-05T05:17:06.103Z,9.667791
2023-03-05T05:18:06.128Z,9.667857
2023-03-05T05:19:06.128Z,9.667932
2023-03-05T05:20:06.107Z,9.667963
2023-03-05T05:21:06.069Z,9.667981
2023-03-05T05:22:06.059Z,9.667991
2023-03-05T05:23:06.051Z,9.667992
2023-03-05T05:24:06.060Z,9.667991
2023-03-05T05:25:06.060Z,9.667995
2023-03-05T05:26:06.051Z,9.668021
2023-03-05T05:27:06.076Z,9.668040
2023-03-05T05:28:06.012Z,9.668043
2023-03-05T05:29:06.038Z,9.668044
2023-03-05T05:30:06.003Z,9.667991
2023-03-05T05:31:06.024Z,9.667981
2023-03-05T05:32:06.083Z,9.668036
2023-03-05T05:33:06.722Z,9.668012
2023-03-05T05:34:06.011Z,9.668067
2023-03-05T05:35:05.989Z,9.668051
2023-03-05T05:36:05.996Z,9.668049
2023-03-05T05:37:05.965Z,9.668076
2023-03-05T05:38:05.954Z,9.668094
2023-03-05T05:39:05.946Z,9.668109
2023-03-05T05:40:05.949Z,9.668015
2023-03-05T05:41:05.931Z,9.667990
2023-03-05T05:42:05.944Z,9.668028
2023-03-05T05:43:05.901Z,9.668076
2023-03-05T05:44:05.931Z,9.668061
2023-03-05T05:45:06.161Z,9.668085
2023-03-05T05:46:05.993Z,9.668103
2023-03-05T05:47:05.908Z,9.668102
2023-03-05T05:48:05.913Z,9.668114
2023-03-05T05:49:05.872Z,9.668043
2023-03-05T05:50:05.912Z,9.668131
2023-03-05T05:51:05.859Z,9.668056
2023-03-05T05:52:05.904Z,9.668030
2023-03-05T05:53:05.850Z,9.668069
2023-03-05T05:54:05.886Z,9.668049
2023-03-05T05:55:05.856Z,9.668066
2023-03-05T05:56:05.828Z,9.668056
2023-03-05T05:57:05.841Z,9.668036
2023-03-05T05:58:05.800Z,9.668022
2023-03-05T05:59:05.843Z,9.668048
2023-03-05T06:00:05.822Z,9.668076
2023-03-05T06:01:05.771Z,9.668060
2023-03-05T06:02:05.798Z,9.668014
2023-03-05T06:03:05.806Z,9.667979
2023-03-05T06:04:05.781Z,9.668046
2023-03-05T06:05:05.738Z,9.668034
2023-03-05T06:06:05.735Z,9.668091
2023-03-05T06:07:05.726Z,9.668096
2023-03-05T06:08:05.739Z,9.668021
2023-03-05T06:09:05.731Z,9.668033
2023-03-05T06:10:05.719Z,9.668034
2023-03-05T06:11:05.690Z,9.668036
2023-03-05T06:12:05.690Z,9.668028
2023-03-05T06:13:05.715Z,9.668001
2023-03-05T06:14:05.712Z,9.668018
2023-03-05T06:15:05.693Z,9.667988
2023-03-05T06:16:05.684Z,9.667971
2023-03-05T06:17:05.650Z,9.668007
2023-03-05T06:18:05.720Z,9.668014
2023-03-05T06:19:05.655Z,9.667998
2023-03-05T06:20:05.643Z,9.667974
2023-03-05T06:21:05.686Z,9.668007
2023-03-05T06:22:05.611Z,9.667995
2023-03-05T06:23:05.621Z,9.668033
2023-03-05T06:24:05.607Z,9.667977
2023-03-05T06:25:05.856Z,9.667983
2023-03-05T06:26:05.575Z,9.667994
2023-03-05T06:27:05.596Z,9.668001
2023-03-05T06:28:05.564Z,9.668012
2023-03-05T06:29:05.585Z,9.668013
2023-03-05T06:30:05.584Z,9.668046
2023-03-05T06:31:05.577Z,9.668024
2023-03-05T06:32:05.634Z,9.668032
2023-03-05T06:33:05.569Z,9.667994
2023-03-05T06:34:05.561Z,9.667968
2023-03-05T06:35:05.535Z,9.667977
2023-03-05T06:36:05.553Z,9.667978
2023-03-05T06:37:05.510Z,9.667994
2023-03-05T06:38:05.507Z,9.667994
2023-03-05T06:39:05.515Z,9.667963
2023-03-05T06:40:05.508Z,9.667891
2023-03-05T06:41:05.471Z,9.667911
2023-03-05T06:42:05.475Z,9.667955
2023-03-05T06:43:05.458Z,9.667985
2023-03-05T06:44:05.474Z,9.667970
2023-03-05T06:45:05.456Z,9.667977
2023-03-05T06:46:05.483Z,9.667994
2023-03-05T06:47:05.440Z,9.667979
2023-03-05T06:48:05.428Z,9.667989
2023-03-05T06:49:05.436Z,9.668014
2023-03-05T06:50:05.404Z,9.668022
2023-03-05T06:51:37.360Z,9.668019
2023-03-05T06:52:06.267Z,9.668034
2023-03-05T06:53:05.397Z,9.668009
2023-03-05T06:54:05.374Z,9.667972
2023-03-05T06:55:05.370Z,9.668012
2023-03-05T06:56:39.239Z,9.668015
2023-03-05T06:57:05.377Z,9.667942
2023-03-05T06:58:06.338Z,9.667966
2023-03-05T06:59:38.248Z,9.667984
2023-03-05T07:00:05.371Z,9.667988
2023-03-05T07:01:06.036Z,9.667909
2023-03-05T07:02:05.392Z,9.667956
2023-03-05T07:03:05.349Z,9.668003
2023-03-05T07:04:05.317Z,9.667985
2023-03-05T07:05:05.363Z,9.667972
2023-03-05T07:06:05.347Z,9.668023
2023-03-05T07:07:05.309Z,9.667996
2023-03-05T07:08:05.308Z,9.667908
2023-03-05T07:09:05.312Z,9.667953
2023-03-05T07:10:05.323Z,9.667979
2023-03-05T07:11:05.292Z,9.667980
2023-03-05T07:12:05.243Z,9.668008
2023-03-05T07:13:05.283Z,9.668039
2023-03-05T07:14:05.256Z,9.668036
2023-03-05T07:15:05.252Z,9.668055
2023-03-05T07:16:05.310Z,9.667965
2023-03-05T07:17:05.278Z,9.668002
2023-03-05T07:18:05.206Z,9.667997
2023-03-05T07:19:05.244Z,9.667984
2023-03-05T07:20:05.216Z,9.668004
2023-03-05T07:21:05.204Z,9.667983
2023-03-05T07:22:05.161Z,9.668002
2023-03-05T07:23:05.188Z,9.667993
2023-03-05T07:24:05.173Z,9.668009
2023-03-05T07:25:37.809Z,9.667988
2023-03-05T07:26:05.127Z,9.668010
2023-03-05T07:27:05.143Z,9.668037
2023-03-05T07:28:05.179Z,9.668033
2023-03-05T07:29:05.119Z,9.668030
2023-03-05T07:30:05.207Z,9.667980
2023-03-05T07:31:05.232Z,9.668044
2023-03-05T07:32:05.143Z,9.668062
2023-03-05T07:33:05.157Z,9.667977
2023-03-05T07:34:05.060Z,9.668033
2023-03-05T07:35:05.083Z,9.667983
2023-03-05T07:36:05.453Z,9.667997
2023-03-05T07:37:05.094Z,9.668015
2023-03-05T07:38:05.115Z,9.667940
2023-03-05T07:39:05.099Z,9.667993
2023-03-05T07:40:05.053Z,9.667952
2023-03-05T07:41:05.029Z,9.667930
2023-03-05T07:42:05.077Z,9.667951
2023-03-05T07:43:05.047Z,9.668043
2023-03-05T07:44:05.007Z,9.668020
2023-03-05T07:45:05.062Z,9.668046
2023-03-05T07:46:05.152Z,9.668099
2023-03-05T07:47:04.982Z,9.668061
2023-03-05T07:48:04.992Z,9.668058
2023-03-05T07:49:04.978Z,9.668053
2023-03-05T07:50:04.958Z,9.668058
2023-03-05T07:51:05.035Z,9.668006
2023-03-05T07:52:04.953Z,9.668009
2023-03-05T07:53:04.951Z,9.668014
2023-03-05T07:54:04.955Z,9.667994
2023-03-05T07:55:04.926Z,9.668061
2023-03-05T07:56:04.919Z,9.668018
2023-03-05T07:57:04.926Z,9.668042
2023-03-05T07:58:04.920Z,9.668023
2023-03-05T07:59:04.917Z,9.668004
2023-03-05T08:00:04.990Z,9.667995
2023-03-05T08:01:04.898Z,9.668029
2023-03-05T08:02:04.895Z,9.668041
2023-03-05T08:03:04.856Z,9.668043
2023-03-05T08:04:04.963Z,9.668039
2023-03-05T08:05:04.833Z,9.668020
2023-03-05T08:06:04.842Z,9.668018
2023-03-05T08:07:04.849Z,9.668055
2023-03-05T08:08:04.868Z,9.668053
2023-03-05T08:09:04.832Z,9.668033
2023-03-05T08:10:04.800Z,9.668084
2023-03-05T08:11:04.800Z,9.668061
2023-03-05T08:12:04.788Z,9.668060
2023-03-05T08:13:04.800Z,9.668073
2023-03-05T08:14:04.833Z,9.668048
2023-03-05T08:15:04.774Z,9.668030
2023-03-05T08:16:04.812Z,9.668134
2023-03-05T08:17:04.769Z,9.668104
2023-03-05T08:18:04.755Z,9.668067
2023-03-05T08:19:04.844Z,9.668072
2023-03-05T08:20:04.746Z,9.668079
2023-03-05T08:21:04.737Z,9.668076
2023-03-05T08:22:04.741Z,9.668079
2023-03-05T08:23:04.763Z,9.668125
2023-03-05T08:24:04.696Z,9.668089
2023-03-05T08:25:04.736Z,9.668070
2023-03-05T08:26:04.716Z,9.668060
2023-03-05T08:27:04.732Z,9.668047
2023-03-05T08:28:04.672Z,9.668081
2023-03-05T08:29:04.790Z,9.668069
2023-03-05T08:30:04.700Z,9.668056
2023-03-05T08:31:04.667Z,9.668071
2023-03-05T08:32:04.675Z,9.668054
2023-03-05T08:33:04.647Z,9.668064
2023-03-05T08:34:04.635Z,9.668061
2023-03-05T08:35:04.623Z,9.668004
2023-03-05T08:36:04.660Z,9.667998
2023-03-05T08:37:04.643Z,9.668016
2023-03-05T08:38:04.698Z,9.667993
2023-03-05T08:39:04.599Z,9.668048
2023-03-05T08:40:04.621Z,9.668012
2023-03-05T08:41:04.596Z,9.668037
2023-03-05T08:42:04.571Z,9.668059
2023-03-05T08:43:04.588Z,9.668000
2023-03-05T08:44:04.634Z,9.668037
2023-03-05T08:45:04.614Z,9.667993
2023-03-05T08:46:04.538Z,9.668040
2023-03-05T08:47:04.528Z,9.668006
2023-03-05T08:48:04.520Z,9.667973
2023-03-05T08:49:04.514Z,9.668017
2023-03-05T08:50:04.522Z,9.668013
2023-03-05T08:51:04.503Z,9.668017
2023-03-05T08:52:04.479Z,9.668012
2023-03-05T08:53:04.482Z,9.668021
2023-03-05T08:54:04.499Z,9.668027
2023-03-05T08:55:04.495Z,9.667982
2023-03-05T08:56:04.476Z,9.667980
2023-03-05T08:57:04.954Z,9.667981
2023-03-05T08:58:04.469Z,9.668029
2023-03-05T08:59:04.437Z,9.668015
2023-03-05T09:00:04.426Z,9.667978
2023-03-05T09:01:04.440Z,9.667972
2023-03-05T09:02:04.481Z,9.667969
2023-03-05T09:03:04.543Z,9.667983
2023-03-05T09:04:04.422Z,9.668010
2023-03-05T09:05:04.385Z,9.668014
2023-03-05T09:06:04.368Z,9.668047
2023-03-05T09:07:04.417Z,9.668044
2023-03-05T09:08:04.352Z,9.667960
2023-03-05T09:09:04.373Z,9.668011
2023-03-05T09:10:04.429Z,9.667981
2023-03-05T09:11:04.339Z,9.667988
2023-03-05T09:12:04.431Z,9.667966
2023-03-05T09:13:04.364Z,9.667997
2023-03-05T09:14:04.323Z,9.667982
2023-03-05T09:15:04.341Z,9.668012
2023-03-05T09:16:04.471Z,9.668026
2023-03-05T09:17:04.303Z,9.668042
2023-03-05T09:18:04.337Z,9.667988
2023-03-05T09:19:04.322Z,9.667955
2023-03-05T09:20:04.297Z,9.668001
2023-03-05T09:21:04.297Z,9.667989
2023-03-05T09:22:04.296Z,9.667990
2023-03-05T09:23:04.248Z,9.667994
2023-03-05T09:24:04.262Z,9.667964
2023-03-05T09:25:04.260Z,9.667972
2023-03-05T09:26:04.282Z,9.667951
2023-03-05T09:27:04.239Z,9.667979
2023-03-05T09:28:04.241Z,9.668023
2023-03-05T09:29:04.272Z,9.667966
2023-03-05T09:30:04.207Z,9.667983
2023-03-05T09:31:04.218Z,9.667987
2023-03-05T09:32:04.267Z,9.667994
2023-03-05T09:33:04.177Z,9.668008
2023-03-05T09:34:05.174Z,9.667956
2023-03-05T09:35:04.181Z,9.667983
2023-03-05T09:36:04.338Z,9.667982
2023-03-05T09:37:04.148Z,9.667981
2023-03-05T09:38:04.148Z,9.667982
2023-03-05T09:39:04.155Z,9.667997
2023-03-05T09:40:04.119Z,9.667983
2023-03-05T09:41:04.115Z,9.667966
2023-03-05T09:42:04.129Z,9.667965
2023-03-05T09:43:04.130Z,9.667987
2023-03-05T09:44:04.153Z,9.667959
2023-03-05T09:45:04.119Z,9.667980
2023-03-05T09:46:04.119Z,9.668008
2023-03-05T09:47:04.100Z,9.667953
2023-03-05T09:48:04.070Z,9.668011
2023-03-05T09:49:04.081Z,9.667930
2023-03-05T09:50:04.110Z,9.667937
2023-03-05T09:51:04.103Z,9.667910
2023-03-05T09:52:37.831Z,9.667944
2023-03-05T09:53:04.917Z,9.667960
2023-03-05T09:54:04.047Z,9.667947
2023-03-05T09:55:04.015Z,9.667976
2023-03-05T09:56:04.008Z,9.668005
2023-03-05T09:57:04.073Z,9.667989
2023-03-05T09:58:04.035Z,9.667965
2023-03-05T09:59:04.006Z,9.667986
2023-03-05T10:00:04.003Z,9.667989
2023-03-05T10:01:03.956Z,9.667980
2023-03-05T10:02:03.941Z,9.667987
2023-03-05T10:03:04.013Z,9.667953
2023-03-05T10:04:04.035Z,9.667967
2023-03-05T10:05:04.026Z,9.668013
2023-03-05T10:06:03.927Z,9.668019
2023-03-05T10:07:04.058Z,9.668016
2023-03-05T10:08:03.933Z,9.668021
2023-03-05T10:09:03.916Z,9.668034
2023-03-05T10:10:03.892Z,9.667979
2023-03-05T10:11:03.910Z,9.668037
2023-03-05T10:12:03.901Z,9.668021
2023-03-05T10:13:03.913Z,9.667963
2023-03-05T10:14:03.919Z,9.667995
2023-03-05T10:15:03.850Z,9.667994
2023-03-05T10:16:03.845Z,9.667928
2023-03-05T10:17:03.838Z,9.668012
2023-03-05T10:18:03.902Z,9.667976
2023-03-05T10:19:03.862Z,9.667952
2023-03-05T10:20:03.827Z,9.667909
2023-03-05T10:21:04.546Z,9.667942
2023-03-05T10:22:03.792Z,9.667962
2023-03-05T10:23:03.904Z,9.667969
2023-03-05T10:24:03.815Z,9.667966
2023-03-05T10:25:03.789Z,9.667943
2023-03-05T10:26:03.792Z,9.667947
2023-03-05T10:27:03.850Z,9.667953
2023-03-05T10:28:03.789Z,9.667940
2023-03-05T10:29:36.386Z,9.667927
2023-03-05T10:30:03.764Z,9.667965
2023-03-05T10:31:03.734Z,9.667940
2023-03-05T10:32:03.897Z,9.667933
2023-03-05T10:33:03.741Z,9.667935
2023-03-05T10:34:03.778Z,9.667946
2023-03-05T10:35:03.691Z,9.667962
2023-03-05T10:36:03.707Z,9.667963
2023-03-05T10:37:03.698Z,9.667974
2023-03-05T10:38:03.747Z,9.667964
2023-03-05T10:39:03.714Z,9.667959
2023-03-05T10:40:03.675Z,9.667980
2023-03-05T10:41:04.652Z,9.667963
2023-03-05T10:42:04.496Z,9.667974
2023-03-05T10:43:03.645Z,9.667955
2023-03-05T10:44:03.661Z,9.667952
2023-03-05T10:45:03.632Z,9.667955
2023-03-05T10:46:03.745Z,9.667974
2023-03-05T10:47:03.617Z,9.667950
2023-03-05T10:48:03.608Z,9.668017
2023-03-05T10:49:03.616Z,9.668000
2023-03-05T10:50:03.639Z,9.667984
2023-03-05T10:51:03.616Z,9.667953
2023-03-05T10:52:03.619Z,9.667990
2023-03-05T10:53:03.574Z,9.667943
2023-03-05T10:54:03.576Z,9.667953
2023-03-05T10:55:03.586Z,9.667968
2023-03-05T10:56:03.543Z,9.667970
2023-03-05T10:57:03.555Z,9.667951
2023-03-05T10:58:03.541Z,9.667983
2023-03-05T10:59:03.516Z,9.668016
2023-03-05T11:00:03.514Z,9.668000
2023-03-05T11:01:03.569Z,9.667994
2023-03-05T11:02:03.552Z,9.668030
2023-03-05T11:03:03.586Z,9.668013
2023-03-05T11:04:03.540Z,9.668002
2023-03-05T11:05:05.203Z,9.668027
2023-03-05T11:06:04.465Z,9.667967
2023-03-05T11:07:03.491Z,9.667965
2023-03-05T11:08:03.448Z,9.668036
2023-03-05T11:09:03.428Z,9.668010
2023-03-05T11:10:03.488Z,9.668029
2023-03-05T11:11:04.047Z,9.667988
2023-03-05T11:12:04.458Z,9.667995
2023-03-05T11:13:03.401Z,9.668021
2023-03-05T11:14:03.405Z,9.667969
2023-03-05T11:15:03.398Z,9.667971
2023-03-05T11:16:03.454Z,9.667967
2023-03-05T11:17:03.372Z,9.668026
2023-03-05T11:18:03.378Z,9.667993
2023-03-05T11:19:03.365Z,9.667978
2023-03-05T11:20:03.349Z,9.667960
2023-03-05T11:21:03.344Z,9.668000
2023-03-05T11:22:03.376Z,9.667992
2023-03-05T11:23:03.316Z,9.667974
2023-03-05T11:24:03.335Z,9.668003
2023-03-05T11:25:03.324Z,9.667981
2023-03-05T11:26:03.309Z,9.667998
2023-03-05T11:27:03.299Z,9.667919
2023-03-05T11:28:03.338Z,9.667986
2023-03-05T11:29:03.285Z,9.667912
2023-03-05T11:30:03.326Z,9.667979
2023-03-05T11:31:03.356Z,9.667928
2023-03-05T11:32:03.347Z,9.667951
2023-03-05T11:33:03.253Z,9.667996
2023-03-05T11:34:03.252Z,9.667983
2023-03-05T11:35:03.289Z,9.668001
2023-03-05T11:36:03.272Z,9.667967
2023-03-05T11:37:03.215Z,9.668002
2023-03-05T11:38:03.244Z,9.668030
2023-03-05T11:39:03.244Z,9.668051
2023-03-05T11:40:03.209Z,9.667995
2023-03-05T11:41:03.215Z,9.668047
2023-03-05T11:42:03.226Z,9.667973
2023-03-05T11:43:03.189Z,9.667985
2023-03-05T11:44:03.179Z,9.668062
2023-03-05T11:45:03.173Z,9.668044
2023-03-05T11:46:03.204Z,9.667949
2023-03-05T11:47:03.174Z,9.667981
2023-03-05T11:48:03.145Z,9.667990
2023-03-05T11:49:03.163Z,9.668005
2023-03-05T11:50:03.219Z,9.667974
2023-03-05T11:51:03.142Z,9.668010
2023-03-05T11:52:03.162Z,9.668029
2023-03-05T11:53:03.111Z,9.667975
2023-03-05T11:54:04.187Z,9.668038
2023-03-05T11:55:03.112Z,9.667937
2023-03-05T11:56:03.092Z,9.668043
2023-03-05T11:57:03.124Z,9.668073
2023-03-05T11:58:03.078Z,9.668091
2023-03-05T11:59:03.140Z,9.668019
2023-03-05T12:00:03.052Z,9.668049
2023-03-05T12:01:03.046Z,9.668061
2023-03-05T12:02:03.026Z,9.668056
2023-03-05T12:03:03.083Z,9.668026
2023-03-05T12:04:03.029Z,9.668044
2023-03-05T12:05:03.009Z,9.668003
2023-03-05T12:06:03.008Z,9.668012
2023-03-05T12:07:02.992Z,9.668043
2023-03-05T12:08:03.020Z,9.668053
2023-03-05T12:09:03.008Z,9.668029
2023-03-05T12:10:02.987Z,9.668083
2023-03-05T12:11:02.953Z,9.668056
2023-03-05T12:12:02.983Z,9.668045
2023-03-05T12:13:02.969Z,9.667985
2023-03-05T12:14:02.937Z,9.668015
2023-03-05T12:15:02.937Z,9.668031